createdAt,value
2016-12-17T00:00:19.364Z,1029.17
2016-12-17T00:01:28.657Z,1029.18
2016-12-17T00:02:37.333Z,1029.18
2016-12-17T00:03:46.040Z,1029.18
2016-12-17T00:04:55.373Z,1029.18
2016-12-17T00:06:04.787Z,1029.19
2016-12-17T00:07:13.481Z,1029.16
2016-12-17T00:08:22.777Z,1029.23
2016-12-17T00:09:31.517Z,1029.17
2016-12-17T00:10:40.807Z,1029.16
2016-12-17T00:11:49.479Z,1029.21
2016-12-17T00:12:58.777Z,1029.24
2016-12-17T00:14:08.391Z,1029.24
2016-12-17T00:15:18.002Z,1029.19
2016-12-17T00:16:27.002Z,1029.21
2016-12-17T00:17:35.713Z,1029.2
2016-12-17T00:18:45.626Z,1029.17
2016-12-17T00:19:54.937Z,1029.24
2016-12-17T00:21:03.934Z,1029.29
2016-12-17T00:22:12.939Z,1029.29
2016-12-17T00:23:22.585Z,1029.27
2016-12-17T00:24:31.566Z,1029.24
2016-12-17T00:25:40.858Z,1029.27
2016-12-17T00:26:49.876Z,1029.23
2016-12-17T00:27:59.204Z,1029.25
2016-12-17T00:29:08.188Z,1029.21
2016-12-17T00:30:16.876Z,1029.23
2016-12-17T00:31:25.546Z,1029.24
2016-12-17T00:32:35.149Z,1029.26
2016-12-17T00:33:43.853Z,1029.23
2016-12-17T00:34:53.253Z,1029.25
2016-12-17T00:36:01.933Z,1029.26
2016-12-17T00:37:11.533Z,1029.31
2016-12-17T00:38:20.212Z,1029.32
2016-12-17T00:39:29.189Z,1029.3
2016-12-17T00:40:38.322Z,1029.32
2016-12-17T00:41:47.315Z,1029.3
2016-12-17T00:42:56.312Z,1029.26
2016-12-17T00:44:04.998Z,1029.25
2016-12-17T00:45:13.992Z,1029.25
2016-12-17T00:46:22.660Z,1029.3
2016-12-17T00:47:31.949Z,1029.25
2016-12-17T00:48:40.965Z,1029.26
2016-12-17T00:49:49.949Z,1029.2
2016-12-17T00:50:58.622Z,1029.23
2016-12-17T00:52:07.608Z,1029.22
2016-12-17T00:53:16.289Z,1029.24
2016-12-17T00:54:24.979Z,1029.26
2016-12-17T00:55:34.270Z,1029.33
2016-12-17T00:56:43.879Z,1029.38
2016-12-17T00:57:52.861Z,1029.41
2016-12-17T00:59:02.182Z,1029.44
2016-12-17T01:00:11.203Z,1029.47
2016-12-17T01:01:20.193Z,1029.52
2016-12-17T01:02:29.186Z,1029.54
2016-12-17T01:03:38.504Z,1029.55
2016-12-17T01:04:47.496Z,1029.56
2016-12-17T01:05:56.161Z,1029.6
2016-12-17T01:07:04.841Z,1029.54
2016-12-17T01:08:13.817Z,1029.57
2016-12-17T01:09:22.974Z,1029.5
2016-12-17T01:10:32.265Z,1029.47
2016-12-17T01:11:40.962Z,1029.5
2016-12-17T01:12:49.948Z,1029.45
2016-12-17T01:13:58.928Z,1029.43
2016-12-17T01:15:08.571Z,1029.4
2016-12-17T01:16:18.173Z,1029.42
2016-12-17T01:17:27.479Z,1029.37
2016-12-17T01:18:36.175Z,1029.41
2016-12-17T01:19:45.163Z,1029.44
2016-12-17T01:20:54.160Z,1029.48
2016-12-17T01:22:03.149Z,1029.57
2016-12-17T01:23:12.139Z,1029.53
2016-12-17T01:24:20.849Z,1029.61
2016-12-17T01:25:29.528Z,1029.62
2016-12-17T01:26:38.611Z,1029.64
2016-12-17T01:27:47.910Z,1029.62
2016-12-17T01:28:56.902Z,1029.65
2016-12-17T01:30:05.891Z,1029.67
2016-12-17T01:31:15.189Z,1029.71
2016-12-17T01:32:24.176Z,1029.72
2016-12-17T01:33:32.859Z,1029.74
2016-12-17T01:34:41.542Z,1029.69
2016-12-17T01:35:51.134Z,1029.75
2016-12-17T01:37:00.112Z,1029.73
2016-12-17T01:38:09.466Z,1029.76
2016-12-17T01:39:18.754Z,1029.77
2016-12-17T01:40:27.440Z,1029.79
2016-12-17T01:41:36.428Z,1029.77
2016-12-17T01:42:45.104Z,1029.79
2016-12-17T01:43:54.236Z,1029.73
2016-12-17T01:45:02.917Z,1029.76
2016-12-17T01:46:11.598Z,1029.8
2016-12-17T01:47:20.584Z,1029.81
2016-12-17T01:48:29.570Z,1029.89
2016-12-17T01:49:38.909Z,1029.91
2016-12-17T01:50:47.899Z,1029.96
2016-12-17T01:51:57.194Z,1029.93
2016-12-17T01:53:05.864Z,1029.89
2016-12-17T01:54:14.553Z,1029.87
2016-12-17T01:55:23.610Z,1029.87
2016-12-17T01:56:32.275Z,1029.85
2016-12-17T01:57:41.575Z,1029.84
2016-12-17T01:58:50.556Z,1029.86
2016-12-17T01:59:59.535Z,1029.92
2016-12-17T02:01:08.614Z,1029.92
2016-12-17T02:02:18.206Z,1029.93
2016-12-17T02:03:27.499Z,1029.97
2016-12-17T02:04:36.796Z,1029.99
2016-12-17T02:05:46.389Z,1029.96
2016-12-17T02:06:55.211Z,1029.91
2016-12-17T02:08:04.507Z,1029.88
2016-12-17T02:09:13.504Z,1029.8
2016-12-17T02:10:22.500Z,1029.84
2016-12-17T02:11:31.484Z,1029.78
2016-12-17T02:12:40.469Z,1029.81
2016-12-17T02:13:49.150Z,1029.81
2016-12-17T02:14:57.834Z,1029.8
2016-12-17T02:16:07.427Z,1029.81
2016-12-17T02:17:16.447Z,1029.78
2016-12-17T02:18:25.477Z,1029.84
2016-12-17T02:19:34.762Z,1029.82
2016-12-17T02:20:44.061Z,1029.84
2016-12-17T02:21:53.353Z,1029.9
2016-12-17T02:23:02.647Z,1029.84
2016-12-17T02:24:11.934Z,1029.8
2016-12-17T02:25:20.641Z,1029.77
2016-12-17T02:26:29.364Z,1029.81
2016-12-17T02:27:38.655Z,1029.83
2016-12-17T02:28:47.937Z,1029.84
2016-12-17T02:29:57.896Z,1029.88
2016-12-17T02:31:07.579Z,1029.87
2016-12-17T02:32:17.202Z,1029.83
2016-12-17T02:33:26.809Z,1029.85
2016-12-17T02:34:36.117Z,1029.83
2016-12-17T02:35:45.218Z,1029.83
2016-12-17T02:36:53.896Z,1029.79
2016-12-17T02:38:02.885Z,1029.82
2016-12-17T02:39:12.184Z,1029.81
2016-12-17T02:40:21.179Z,1029.86
2016-12-17T02:41:30.469Z,1029.88
2016-12-17T02:42:39.471Z,1029.89
2016-12-17T02:43:48.449Z,1029.86
2016-12-17T02:44:57.463Z,1029.86
2016-12-17T02:46:06.462Z,1029.84
2016-12-17T02:47:15.561Z,1029.83
2016-12-17T02:48:24.549Z,1029.9
2016-12-17T02:49:33.539Z,1029.89
2016-12-17T02:50:43.136Z,1029.93
2016-12-17T02:51:52.121Z,1029.93
2016-12-17T02:53:00.898Z,1029.88
2016-12-17T02:54:09.584Z,1029.96
2016-12-17T02:55:18.256Z,1030
2016-12-17T02:56:27.251Z,1029.97
2016-12-17T02:57:36.243Z,1029.96
2016-12-17T02:58:45.229Z,1030.01
2016-12-17T02:59:53.908Z,1030.02
2016-12-17T03:01:02.894Z,1030.02
2016-12-17T03:02:11.564Z,1030.02
2016-12-17T03:03:20.248Z,1030.08
2016-12-17T03:04:29.291Z,1030
2016-12-17T03:05:38.588Z,1030.01
2016-12-17T03:06:48.494Z,1029.99
2016-12-17T03:07:57.790Z,1030.03
2016-12-17T03:09:07.085Z,1030.05
2016-12-17T03:10:15.761Z,1030.02
2016-12-17T03:11:24.750Z,1029.98
2016-12-17T03:12:33.746Z,1029.96
2016-12-17T03:13:43.040Z,1029.94
2016-12-17T03:14:52.032Z,1029.92
2016-12-17T03:16:01.519Z,1029.93
2016-12-17T03:17:10.824Z,1029.91
2016-12-17T03:18:19.809Z,1029.94
2016-12-17T03:19:28.525Z,1029.93
2016-12-17T03:20:37.203Z,1029.92
2016-12-17T03:21:46.185Z,1029.9
2016-12-17T03:22:55.508Z,1029.87
2016-12-17T03:24:05.108Z,1029.83
2016-12-17T03:25:14.404Z,1029.8
2016-12-17T03:26:23.703Z,1029.83
2016-12-17T03:27:32.847Z,1029.89
2016-12-17T03:28:42.138Z,1029.88
2016-12-17T03:29:51.127Z,1029.88
2016-12-17T03:30:59.808Z,1029.87
2016-12-17T03:32:09.408Z,1029.85
2016-12-17T03:33:18.077Z,1029.84
2016-12-17T03:34:27.368Z,1029.83
2016-12-17T03:35:36.956Z,1029.83
2016-12-17T03:36:45.632Z,1029.83
2016-12-17T03:37:54.348Z,1029.84
2016-12-17T03:39:03.390Z,1029.87
2016-12-17T03:40:12.381Z,1029.91
2016-12-17T03:41:21.052Z,1029.92
2016-12-17T03:42:29.737Z,1029.92
2016-12-17T03:43:38.727Z,1029.91
2016-12-17T03:44:48.637Z,1029.89
2016-12-17T03:45:57.623Z,1029.9
2016-12-17T03:47:06.926Z,1029.9
2016-12-17T03:48:16.227Z,1029.95
2016-12-17T03:49:25.821Z,1029.93
2016-12-17T03:50:34.811Z,1029.89
2016-12-17T03:51:43.799Z,1029.88
2016-12-17T03:52:54.090Z,1029.93
2016-12-17T03:54:02.773Z,1029.9
2016-12-17T03:55:12.057Z,1029.93
2016-12-17T03:56:21.362Z,1029.91
2016-12-17T03:57:30.653Z,1029.92
2016-12-17T03:58:39.686Z,1029.95
2016-12-17T03:59:48.689Z,1029.96
2016-12-17T04:00:57.669Z,1029.98
2016-12-17T04:02:08.233Z,1030.01
2016-12-17T04:03:17.219Z,1029.98
2016-12-17T04:04:26.508Z,1029.98
2016-12-17T04:05:35.190Z,1029.98
2016-12-17T04:06:44.482Z,1029.98
2016-12-17T04:07:53.520Z,1030.05
2016-12-17T04:09:02.193Z,1030.06
2016-12-17T04:10:10.965Z,1030.14
2016-12-17T04:11:19.956Z,1030.14
2016-12-17T04:12:29.259Z,1030.12
2016-12-17T04:13:38.391Z,1030.18
2016-12-17T04:14:47.065Z,1030.17
2016-12-17T04:15:55.745Z,1030.16
2016-12-17T04:17:04.448Z,1030.14
2016-12-17T04:18:13.119Z,1030.09
2016-12-17T04:19:22.500Z,1030.1
2016-12-17T04:20:31.179Z,1030.07
2016-12-17T04:21:39.859Z,1030.08
2016-12-17T04:22:48.836Z,1030.08
2016-12-17T04:23:58.126Z,1030.08
2016-12-17T04:25:08.041Z,1030.06
2016-12-17T04:26:16.721Z,1030.06
2016-12-17T04:27:25.708Z,1030
2016-12-17T04:28:34.379Z,1029.99
2016-12-17T04:29:43.369Z,1029.95
2016-12-17T04:30:52.755Z,1029.94
2016-12-17T04:32:01.747Z,1029.97
2016-12-17T04:33:10.748Z,1029.91
2016-12-17T04:34:19.427Z,1029.94
2016-12-17T04:35:28.424Z,1029.98
2016-12-17T04:36:37.555Z,1029.96
2016-12-17T04:37:46.539Z,1029.95
2016-12-17T04:38:55.215Z,1029.97
2016-12-17T04:40:04.219Z,1029.99
2016-12-17T04:41:13.017Z,1030
2016-12-17T04:42:22.017Z,1029.99
2016-12-17T04:43:31.127Z,1029.98
2016-12-17T04:44:39.806Z,1029.98
2016-12-17T04:45:48.797Z,1030.02
2016-12-17T04:46:58.094Z,1030.03
2016-12-17T04:48:06.927Z,1030.09
2016-12-17T04:49:15.613Z,1030.11
2016-12-17T04:50:24.902Z,1030.11
2016-12-17T04:51:33.578Z,1030.13
2016-12-17T04:52:42.248Z,1030.12
2016-12-17T04:53:51.336Z,1030.12
2016-12-17T04:55:00.015Z,1030.1
2016-12-17T04:56:09.004Z,1030.09
2016-12-17T04:57:17.985Z,1030.07
2016-12-17T04:58:26.972Z,1030.1
2016-12-17T04:59:35.801Z,1030.07
2016-12-17T05:00:44.474Z,1030.09
2016-12-17T05:01:53.466Z,1030.07
2016-12-17T05:03:02.458Z,1030.15
2016-12-17T05:04:11.158Z,1030.15
2016-12-17T05:05:20.494Z,1030.18
2016-12-17T05:06:29.790Z,1030.19
2016-12-17T05:07:39.394Z,1030.16
2016-12-17T05:08:48.691Z,1030.14
2016-12-17T05:09:57.691Z,1030.15
2016-12-17T05:11:06.691Z,1030.17
2016-12-17T05:12:15.384Z,1030.16
2016-12-17T05:13:24.682Z,1030.2
2016-12-17T05:14:33.969Z,1030.18
2016-12-17T05:15:42.666Z,1030.2
2016-12-17T05:16:51.657Z,1030.23
2016-12-17T05:18:00.640Z,1030.21
2016-12-17T05:19:09.322Z,1030.27
2016-12-17T05:20:18.306Z,1030.32
2016-12-17T05:21:27.911Z,1030.32
2016-12-17T05:22:37.041Z,1030.32
2016-12-17T05:23:45.724Z,1030.39
2016-12-17T05:24:54.410Z,1030.38
2016-12-17T05:26:03.708Z,1030.44
2016-12-17T05:27:13.324Z,1030.47
2016-12-17T05:28:22.100Z,1030.5
2016-12-17T05:29:30.772Z,1030.5
2016-12-17T05:30:39.442Z,1030.55
2016-12-17T05:31:48.138Z,1030.55
2016-12-17T05:32:57.120Z,1030.57
2016-12-17T05:34:06.459Z,1030.57
2016-12-17T05:35:15.441Z,1030.57
2016-12-17T05:36:24.428Z,1030.6
2016-12-17T05:37:33.123Z,1030.65
2016-12-17T05:38:42.116Z,1030.63
2016-12-17T05:39:51.815Z,1030.64
2016-12-17T05:41:01.127Z,1030.64
2016-12-17T05:42:10.143Z,1030.6
2016-12-17T05:43:18.823Z,1030.62
2016-12-17T05:44:27.809Z,1030.63
2016-12-17T05:45:36.890Z,1030.61
2016-12-17T05:46:45.900Z,1030.62
2016-12-17T05:47:54.590Z,1030.65
2016-12-17T05:49:03.274Z,1030.73
2016-12-17T05:50:12.283Z,1030.78
2016-12-17T05:51:21.584Z,1030.79
2016-12-17T05:52:30.874Z,1030.8
2016-12-17T05:53:39.872Z,1030.84
2016-12-17T05:54:48.849Z,1030.83
2016-12-17T05:55:57.520Z,1030.83
2016-12-17T05:57:06.960Z,1030.85
2016-12-17T05:58:16.249Z,1030.83
2016-12-17T05:59:25.249Z,1030.79
2016-12-17T06:00:34.547Z,1030.78
2016-12-17T06:01:43.530Z,1030.75
2016-12-17T06:02:52.514Z,1030.77
2016-12-17T06:04:01.504Z,1030.74
2016-12-17T06:05:10.212Z,1030.77
2016-12-17T06:06:18.894Z,1030.76
2016-12-17T06:07:28.188Z,1030.75
2016-12-17T06:08:37.593Z,1030.74
2016-12-17T06:09:46.259Z,1030.73
2016-12-17T06:10:54.965Z,1030.73
2016-12-17T06:12:03.946Z,1030.71
2016-12-17T06:13:12.939Z,1030.69
2016-12-17T06:14:21.924Z,1030.74
2016-12-17T06:15:30.914Z,1030.76
2016-12-17T06:16:39.601Z,1030.74
2016-12-17T06:17:48.585Z,1030.77
2016-12-17T06:18:57.870Z,1030.76
2016-12-17T06:20:06.859Z,1030.81
2016-12-17T06:21:15.548Z,1030.86
2016-12-17T06:22:24.535Z,1030.89
2016-12-17T06:23:33.224Z,1030.92
2016-12-17T06:24:41.908Z,1030.93
2016-12-17T06:25:51.055Z,1030.9
2016-12-17T06:26:59.729Z,1030.93
2016-12-17T06:28:08.432Z,1030.93
2016-12-17T06:29:17.802Z,1030.91
2016-12-17T06:30:26.800Z,1030.93
2016-12-17T06:31:35.936Z,1030.92
2016-12-17T06:32:44.612Z,1030.96
2016-12-17T06:33:53.597Z,1030.98
2016-12-17T06:35:02.607Z,1031.01
2016-12-17T06:36:11.602Z,1030.96
2016-12-17T06:37:20.941Z,1031
2016-12-17T06:38:29.918Z,1031.02
2016-12-17T06:39:38.914Z,1031
2016-12-17T06:40:47.583Z,1030.98
2016-12-17T06:41:56.258Z,1031.04
2016-12-17T06:43:05.245Z,1031.05
2016-12-17T06:44:14.236Z,1031.06
2016-12-17T06:45:22.936Z,1031.1
2016-12-17T06:46:32.227Z,1031.12
2016-12-17T06:47:40.908Z,1031.11
2016-12-17T06:48:49.743Z,1031.19
2016-12-17T06:49:59.042Z,1031.22
2016-12-17T06:51:08.025Z,1031.24
2016-12-17T06:52:17.342Z,1031.26
2016-12-17T06:53:26.334Z,1031.24
2016-12-17T06:54:35.136Z,1031.31
2016-12-17T06:55:43.806Z,1031.36
2016-12-17T06:56:53.104Z,1031.41
2016-12-17T06:58:02.089Z,1031.37
2016-12-17T06:59:11.072Z,1031.39
2016-12-17T07:00:20.162Z,1031.45
2016-12-17T07:01:29.455Z,1031.48
2016-12-17T07:02:38.466Z,1031.5
2016-12-17T07:03:47.763Z,1031.49
2016-12-17T07:04:56.758Z,1031.52
2016-12-17T07:06:06.045Z,1031.55
2016-12-17T07:07:15.340Z,1031.56
2016-12-17T07:08:24.024Z,1031.56
2016-12-17T07:09:32.712Z,1031.54
2016-12-17T07:10:41.704Z,1031.57
2016-12-17T07:11:50.700Z,1031.53
2016-12-17T07:12:59.702Z,1031.5
2016-12-17T07:14:08.695Z,1031.55
2016-12-17T07:15:17.414Z,1031.53
2016-12-17T07:16:27.016Z,1031.56
2016-12-17T07:17:36.095Z,1031.57
2016-12-17T07:18:45.391Z,1031.57
2016-12-17T07:19:54.367Z,1031.6
2016-12-17T07:21:03.045Z,1031.58
2016-12-17T07:22:11.719Z,1031.59
2016-12-17T07:23:21.159Z,1031.61
2016-12-17T07:24:30.463Z,1031.59
2016-12-17T07:25:39.146Z,1031.54
2016-12-17T07:26:48.137Z,1031.53
2016-12-17T07:27:56.815Z,1031.52
2016-12-17T07:29:06.249Z,1031.52
2016-12-17T07:30:14.925Z,1031.54
2016-12-17T07:31:24.219Z,1031.51
2016-12-17T07:32:33.508Z,1031.55
2016-12-17T07:33:42.492Z,1031.56
2016-12-17T07:34:51.512Z,1031.56
2016-12-17T07:36:00.511Z,1031.58
2016-12-17T07:37:09.804Z,1031.59
2016-12-17T07:40:51.498Z,1031.64
2016-12-17T07:42:00.482Z,1031.64
2016-12-17T07:43:10.081Z,1031.66
2016-12-17T07:49:23.955Z,1031.8
2016-12-17T07:50:32.970Z,1031.85
2016-12-17T07:54:14.003Z,1031.89
2016-12-17T07:55:22.993Z,1031.95
2016-12-17T07:56:31.695Z,1031.91
2016-12-17T07:57:41.334Z,1031.92
2016-12-17T07:58:50.631Z,1031.93
2016-12-17T07:59:59.311Z,1031.97
2016-12-17T08:01:08.652Z,1031.96
2016-12-17T08:02:17.981Z,1031.97
2016-12-17T08:03:27.010Z,1031.99
2016-12-17T08:04:36.304Z,1031.99
2016-12-17T08:08:17.350Z,1032.07
2016-12-17T08:09:26.024Z,1032.08
2016-12-17T08:10:35.007Z,1032.08
2016-12-17T08:11:43.989Z,1032.14
2016-12-17T08:12:52.671Z,1032.14
2016-12-17T08:14:01.526Z,1032.16
2016-12-17T08:15:10.531Z,1032.2
2016-12-17T08:16:19.515Z,1032.24
2016-12-17T08:17:28.495Z,1032.31
2016-12-17T08:18:37.797Z,1032.34
2016-12-17T08:19:46.481Z,1032.33
2016-12-17T08:20:55.795Z,1032.35
2016-12-17T08:22:04.963Z,1032.28
2016-12-17T08:23:13.978Z,1032.31
2016-12-17T08:24:22.756Z,1032.34
2016-12-17T08:25:32.018Z,1032.35
2016-12-17T08:26:41.031Z,1032.4
2016-12-17T08:27:50.018Z,1032.41
2016-12-17T08:28:59.100Z,1032.41
2016-12-17T08:30:08.005Z,1032.39
2016-12-17T08:31:17.437Z,1032.44
2016-12-17T08:32:26.421Z,1032.4
2016-12-17T08:33:35.471Z,1032.42
2016-12-17T08:34:44.469Z,1032.41
2016-12-17T08:35:53.148Z,1032.44
2016-12-17T08:37:02.236Z,1032.49
2016-12-17T08:38:11.530Z,1032.54
2016-12-17T08:39:20.520Z,1032.55
2016-12-17T08:40:29.516Z,1032.57
2016-12-17T08:41:38.541Z,1032.56
2016-12-17T08:42:47.678Z,1032.54
2016-12-17T08:43:56.702Z,1032.55
2016-12-17T08:45:05.422Z,1032.51
2016-12-17T08:46:14.464Z,1032.53
2016-12-17T08:47:23.771Z,1032.54
2016-12-17T08:48:32.795Z,1032.49
2016-12-17T08:49:42.093Z,1032.52
2016-12-17T08:50:51.118Z,1032.47
2016-12-17T08:51:59.794Z,1032.51
2016-12-17T08:53:09.090Z,1032.48
2016-12-17T08:54:18.079Z,1032.47
2016-12-17T08:55:27.368Z,1032.48
2016-12-17T08:56:36.359Z,1032.51
2016-12-17T08:57:45.349Z,1032.48
2016-12-17T08:58:54.343Z,1032.53
2016-12-17T09:00:03.341Z,1032.51
2016-12-17T09:01:12.030Z,1032.48
2016-12-17T09:02:21.327Z,1032.48
2016-12-17T09:03:30.311Z,1032.52
2016-12-17T09:04:39.293Z,1032.5
2016-12-17T09:05:47.984Z,1032.52
2016-12-17T09:06:56.970Z,1032.49
2016-12-17T09:08:05.961Z,1032.52
2016-12-17T09:09:15.564Z,1032.51
2016-12-17T09:10:24.889Z,1032.49
2016-12-17T09:11:33.577Z,1032.53
2016-12-17T09:12:42.577Z,1032.51
2016-12-17T09:13:52.181Z,1032.51
2016-12-17T09:15:01.184Z,1032.53
2016-12-17T09:16:10.485Z,1032.58
2016-12-17T09:17:20.541Z,1032.61
2016-12-17T09:18:29.844Z,1032.59
2016-12-17T09:19:39.139Z,1032.66
2016-12-17T09:20:48.132Z,1032.69
2016-12-17T09:21:57.111Z,1032.72
2016-12-17T09:23:05.888Z,1032.71
2016-12-17T09:24:15.187Z,1032.79
2016-12-17T09:25:24.183Z,1032.76
2016-12-17T09:26:33.187Z,1032.84
2016-12-17T09:27:42.486Z,1032.82
2016-12-17T09:28:52.242Z,1032.82
2016-12-17T09:30:00.929Z,1032.81
2016-12-17T09:31:09.911Z,1032.81
2016-12-17T09:32:19.213Z,1032.85
2016-12-17T09:33:27.896Z,1032.87
2016-12-17T09:34:37.309Z,1032.93
2016-12-17T09:35:45.992Z,1032.92
2016-12-17T09:36:55.613Z,1032.95
2016-12-17T09:38:04.923Z,1032.95
2016-12-17T09:39:13.610Z,1033
2016-12-17T09:40:22.753Z,1033
2016-12-17T09:41:31.797Z,1033.04
2016-12-17T09:42:41.409Z,1033.04
2016-12-17T09:43:50.703Z,1033.08
2016-12-17T09:44:59.397Z,1033.1
2016-12-17T09:46:08.699Z,1033.1
2016-12-17T09:47:17.682Z,1033.12
2016-12-17T09:48:26.365Z,1033.1
2016-12-17T09:49:35.042Z,1033.11
2016-12-17T09:50:44.647Z,1033.12
2016-12-17T09:51:53.677Z,1033.13
2016-12-17T09:53:02.666Z,1033.12
2016-12-17T09:54:11.371Z,1033.12
2016-12-17T09:55:20.375Z,1033.11
2016-12-17T09:56:29.988Z,1033.15
2016-12-17T09:57:39.430Z,1033.16
2016-12-17T09:58:48.111Z,1033.19
2016-12-17T09:59:57.136Z,1033.18
2016-12-17T10:01:06.124Z,1033.22
2016-12-17T10:02:15.427Z,1033.17
2016-12-17T10:03:24.563Z,1033.21
2016-12-17T10:04:34.176Z,1033.22
2016-12-17T10:05:43.478Z,1033.21
2016-12-17T10:06:52.463Z,1033.21
2016-12-17T10:08:01.451Z,1033.2
2016-12-17T10:09:10.440Z,1033.2
2016-12-17T10:10:19.735Z,1033.19
2016-12-17T10:11:28.433Z,1033.2
2016-12-17T10:12:37.420Z,1033.17
2016-12-17T10:13:46.427Z,1033.15
2016-12-17T10:14:55.565Z,1033.14
2016-12-17T10:16:04.276Z,1033.14
2016-12-17T10:17:12.967Z,1033.11
2016-12-17T10:18:21.968Z,1033.15
2016-12-17T10:19:30.670Z,1033.1
2016-12-17T10:20:39.723Z,1033.08
2016-12-17T10:21:48.422Z,1033.1
2016-12-17T10:22:57.115Z,1033.05
2016-12-17T10:24:06.116Z,1033.1
2016-12-17T10:25:15.635Z,1033.07
2016-12-17T10:26:25.801Z,1033.09
2016-12-17T10:27:34.574Z,1033.07
2016-12-17T10:28:43.658Z,1033.07
2016-12-17T10:29:52.394Z,1033.04
2016-12-17T10:31:01.813Z,1033.07
2016-12-17T10:32:10.914Z,1033.15
2016-12-17T10:33:19.589Z,1033.12
2016-12-17T10:34:29.192Z,1033.14
2016-12-17T10:35:37.883Z,1033.14
2016-12-17T10:36:46.865Z,1033.11
2016-12-17T10:37:56.161Z,1033.1
2016-12-17T10:39:05.151Z,1033.08
2016-12-17T10:40:14.139Z,1033.1
2016-12-17T10:41:23.429Z,1033.1
2016-12-17T10:42:33.039Z,1033.15
2016-12-17T10:43:42.494Z,1033.11
2016-12-17T10:44:51.176Z,1033.13
2016-12-17T10:46:00.181Z,1033.08
2016-12-17T10:47:08.870Z,1033.1
2016-12-17T10:48:17.891Z,1033.08
2016-12-17T10:49:26.674Z,1033.1
2016-12-17T10:50:35.671Z,1033.11
2016-12-17T10:51:44.973Z,1033.1
2016-12-17T10:52:54.270Z,1033.07
2016-12-17T10:54:03.290Z,1033.09
2016-12-17T10:55:12.441Z,1033.1
2016-12-17T10:56:21.121Z,1033.03
2016-12-17T10:57:30.112Z,1033.02
2016-12-17T10:58:39.417Z,1032.99
2016-12-17T10:59:48.111Z,1033.01
2016-12-17T11:00:57.509Z,1032.97
2016-12-17T11:02:06.552Z,1033.01
2016-12-17T11:03:15.531Z,1033.02
2016-12-17T11:04:24.530Z,1032.99
2016-12-17T11:05:33.237Z,1033.01
2016-12-17T11:06:42.230Z,1032.99
2016-12-17T11:07:50.907Z,1032.98
2016-12-17T11:09:00.242Z,1033.03
2016-12-17T11:10:09.539Z,1032.98
2016-12-17T11:11:18.860Z,1032.95
2016-12-17T11:12:28.382Z,1032.94
2016-12-17T11:13:37.705Z,1032.97
2016-12-17T11:14:46.389Z,1032.96
2016-12-17T11:15:55.379Z,1032.98
2016-12-17T11:17:04.385Z,1032.97
2016-12-17T11:18:13.715Z,1032.93
2016-12-17T11:19:23.310Z,1032.94
2016-12-17T11:20:32.344Z,1032.93
2016-12-17T11:21:41.638Z,1032.9
2016-12-17T11:22:50.652Z,1032.91
2016-12-17T11:23:59.674Z,1032.89
2016-12-17T11:25:08.658Z,1032.88
2016-12-17T11:26:17.348Z,1032.84
2016-12-17T11:27:26.049Z,1032.89
2016-12-17T11:28:34.739Z,1032.87
2016-12-17T11:29:43.572Z,1032.85
2016-12-17T11:30:52.966Z,1032.84
2016-12-17T11:32:02.260Z,1032.87
2016-12-17T11:33:11.852Z,1032.85
2016-12-17T11:34:20.561Z,1032.87
2016-12-17T11:35:29.710Z,1032.9
2016-12-17T11:36:38.703Z,1032.9
2016-12-17T11:37:48.001Z,1032.91
2016-12-17T11:38:56.695Z,1032.9
2016-12-17T11:40:05.373Z,1032.83
2016-12-17T11:41:14.356Z,1032.8
2016-12-17T11:42:23.028Z,1032.8
2016-12-17T11:43:32.630Z,1032.82
2016-12-17T11:44:41.338Z,1032.79
2016-12-17T11:45:50.017Z,1032.79
2016-12-17T11:46:58.698Z,1032.81
2016-12-17T11:48:07.689Z,1032.82
2016-12-17T11:49:17.290Z,1032.81
2016-12-17T11:50:26.276Z,1032.8
2016-12-17T11:51:34.971Z,1032.78
2016-12-17T11:52:44.302Z,1032.75
2016-12-17T11:53:53.286Z,1032.75
2016-12-17T11:55:02.283Z,1032.74
2016-12-17T11:56:11.901Z,1032.74
2016-12-17T11:57:21.195Z,1032.74
2016-12-17T11:58:30.339Z,1032.71
2016-12-17T11:59:39.633Z,1032.71
2016-12-17T12:00:48.942Z,1032.71
2016-12-17T12:01:57.937Z,1032.68
2016-12-17T12:03:07.236Z,1032.67
2016-12-17T12:04:16.585Z,1032.69
2016-12-17T12:05:25.573Z,1032.67
2016-12-17T12:06:35.174Z,1032.65
2016-12-17T12:07:43.857Z,1032.65
2016-12-17T12:08:53.158Z,1032.66
2016-12-17T12:10:02.603Z,1032.69
2016-12-17T12:11:12.526Z,1032.7
2016-12-17T12:12:21.522Z,1032.7
2016-12-17T12:13:30.817Z,1032.67
2016-12-17T12:14:40.486Z,1032.66
2016-12-17T12:15:49.472Z,1032.7
2016-12-17T12:16:58.774Z,1032.69
2016-12-17T12:18:08.080Z,1032.73
2016-12-17T12:19:17.063Z,1032.77
2016-12-17T12:20:26.669Z,1032.76
2016-12-17T12:21:35.716Z,1032.75
2016-12-17T12:22:44.404Z,1032.75
2016-12-17T12:23:53.085Z,1032.78
2016-12-17T12:25:02.380Z,1032.8
2016-12-17T12:26:11.373Z,1032.75
2016-12-17T12:27:20.519Z,1032.75
2016-12-17T12:28:29.506Z,1032.75
2016-12-17T12:29:38.505Z,1032.73
2016-12-17T12:30:47.508Z,1032.69
2016-12-17T12:31:56.498Z,1032.68
2016-12-17T12:33:05.491Z,1032.66
2016-12-17T12:34:14.210Z,1032.67
2016-12-17T12:35:23.191Z,1032.65
2016-12-17T12:36:31.877Z,1032.69
2016-12-17T12:37:41.197Z,1032.7
2016-12-17T12:38:50.482Z,1032.71
2016-12-17T12:40:00.092Z,1032.73
2016-12-17T12:41:08.787Z,1032.74
2016-12-17T12:42:18.396Z,1032.72
2016-12-17T12:43:27.073Z,1032.77
2016-12-17T12:44:36.745Z,1032.78
2016-12-17T12:45:45.443Z,1032.78
2016-12-17T12:46:54.121Z,1032.72
2016-12-17T12:48:03.118Z,1032.73
2016-12-17T12:49:12.411Z,1032.76
2016-12-17T12:50:21.201Z,1032.67
2016-12-17T12:51:29.908Z,1032.71
2016-12-17T12:52:38.606Z,1032.74
2016-12-17T12:53:47.292Z,1032.71
2016-12-17T12:54:55.994Z,1032.66
2016-12-17T12:56:05.444Z,1032.68
2016-12-17T12:57:14.740Z,1032.69
2016-12-17T12:58:23.735Z,1032.69
2016-12-17T12:59:32.413Z,1032.69
2016-12-17T13:00:41.400Z,1032.67
2016-12-17T13:01:50.081Z,1032.66
2016-12-17T13:02:59.080Z,1032.65
2016-12-17T13:04:08.064Z,1032.63
2016-12-17T13:05:17.058Z,1032.6
2016-12-17T13:06:26.361Z,1032.6
2016-12-17T13:07:35.447Z,1032.57
2016-12-17T13:08:44.437Z,1032.6
2016-12-17T13:09:53.430Z,1032.63
2016-12-17T13:11:02.739Z,1032.68
2016-12-17T13:12:11.412Z,1032.65
2016-12-17T13:13:20.413Z,1032.69
2016-12-17T13:14:29.091Z,1032.7
2016-12-17T13:15:38.082Z,1032.67
2016-12-17T13:16:47.076Z,1032.69
2016-12-17T13:17:56.066Z,1032.68
2016-12-17T13:19:05.525Z,1032.64
2016-12-17T13:20:15.445Z,1032.67
2016-12-17T13:21:24.472Z,1032.64
2016-12-17T13:22:33.203Z,1032.65
2016-12-17T13:23:42.209Z,1032.62
2016-12-17T13:24:51.561Z,1032.66
2016-12-17T13:26:00.237Z,1032.67
2016-12-17T13:27:09.229Z,1032.67
2016-12-17T13:28:17.993Z,1032.63
2016-12-17T13:29:26.677Z,1032.68
2016-12-17T13:30:35.730Z,1032.69
2016-12-17T13:31:44.715Z,1032.72
2016-12-17T13:32:54.025Z,1032.7
2016-12-17T13:34:03.019Z,1032.7
2016-12-17T13:35:12.002Z,1032.75
2016-12-17T13:36:21.722Z,1032.75
2016-12-17T13:37:31.012Z,1032.78
2016-12-17T13:38:40.610Z,1032.71
2016-12-17T13:39:50.215Z,1032.74
2016-12-17T13:40:59.201Z,1032.77
2016-12-17T13:42:08.216Z,1032.8
2016-12-17T13:43:17.237Z,1032.79
2016-12-17T13:44:26.246Z,1032.82
2016-12-17T13:45:34.952Z,1032.77
2016-12-17T13:46:43.638Z,1032.78
2016-12-17T13:47:52.482Z,1032.74
2016-12-17T13:49:01.166Z,1032.78
2016-12-17T13:50:10.165Z,1032.81
2016-12-17T13:51:19.791Z,1032.8
2016-12-17T13:52:28.781Z,1032.78
2016-12-17T13:53:37.464Z,1032.8
2016-12-17T13:54:46.168Z,1032.8
2016-12-17T13:55:54.849Z,1032.83
2016-12-17T13:57:03.881Z,1032.84
2016-12-17T13:58:12.568Z,1032.82
2016-12-17T13:59:21.710Z,1032.81
2016-12-17T14:00:31.015Z,1032.89
2016-12-17T14:01:40.010Z,1032.88
2016-12-17T14:02:49.301Z,1032.94
2016-12-17T14:03:58.291Z,1032.96
2016-12-17T14:05:07.283Z,1032.96
2016-12-17T14:06:16.580Z,1032.99
2016-12-17T14:07:25.600Z,1032.97
2016-12-17T14:08:34.905Z,1033
2016-12-17T14:09:43.922Z,1032.98
2016-12-17T14:10:53.575Z,1032.91